createdAt,value
2018-12-12T00:00:44.632Z,3.60
2018-12-12T00:03:13.799Z,3.87
2018-12-12T00:05:43.420Z,3.93
2018-12-12T00:08:12.529Z,3.83
2018-12-12T00:10:42.115Z,4.57
2018-12-12T00:13:11.308Z,4.03
2018-12-12T00:15:41.102Z,3.50
2018-12-12T00:18:10.577Z,5.50
2018-12-12T00:20:39.868Z,4.83
2018-12-12T00:23:09.096Z,8.50
2018-12-12T00:25:38.568Z,5.97
2018-12-12T00:28:07.851Z,5.17
2018-12-12T00:30:37.913Z,5.53
2018-12-12T00:33:07.497Z,5.53
2018-12-12T00:35:36.950Z,4.07
2018-12-12T00:38:06.447Z,4.07
2018-12-12T00:40:37.603Z,3.80
2018-12-12T00:43:07.511Z,3.50
2018-12-12T00:45:37.344Z,3.50
2018-12-12T00:48:06.844Z,5.07
2018-12-12T00:50:36.656Z,3.97
2018-12-12T00:53:05.778Z,3.50
2018-12-12T00:55:35.026Z,4.23
2018-12-12T00:58:05.392Z,3.90
2018-12-12T01:00:34.896Z,3.50
2018-12-12T01:03:04.319Z,4.07
2018-12-12T01:05:33.693Z,3.40
2018-12-12T01:08:02.829Z,3.80
2018-12-12T01:10:32.017Z,3.73
2018-12-12T01:13:01.279Z,4.33
2018-12-12T01:15:30.505Z,4.60
2018-12-12T01:17:59.634Z,3.17
2018-12-12T01:20:29.191Z,5.87
2018-12-12T01:22:58.614Z,4.00
2018-12-12T01:25:28.081Z,5.20
2018-12-12T01:27:57.319Z,4.70
2018-12-12T01:30:26.768Z,4.20
2018-12-12T01:32:55.913Z,4.20
2018-12-12T01:35:25.154Z,5.17
2018-12-12T01:37:54.516Z,5.50
2018-12-12T01:40:24.036Z,6.60
2018-12-12T01:42:53.385Z,5.27
2018-12-12T01:45:22.890Z,3.70
2018-12-12T01:47:52.244Z,4.23
2018-12-12T01:50:21.591Z,3.83
2018-12-12T01:52:51.033Z,4.33
2018-12-12T01:55:20.604Z,4.93
2018-12-12T01:57:50.087Z,4.27
2018-12-12T02:00:19.516Z,4.00
2018-12-12T02:02:48.653Z,4.80
2018-12-12T02:05:18.108Z,4.50
2018-12-12T02:07:47.868Z,5.50
2018-12-12T02:10:17.400Z,3.67
2018-12-12T02:13:08.324Z,4.10
2018-12-12T02:15:37.489Z,3.33
2018-12-12T02:18:06.592Z,5.00
2018-12-12T02:20:36.168Z,4.30
2018-12-12T02:23:05.508Z,4.40
2018-12-12T02:25:34.612Z,6.80
2018-12-12T02:28:03.951Z,4.60
2018-12-12T02:30:33.091Z,4.20
2018-12-12T02:33:02.562Z,4.50
2018-12-12T02:35:31.921Z,3.33
2018-12-12T02:38:01.277Z,4.10
2018-12-12T02:40:30.763Z,4.07
2018-12-12T02:43:00.079Z,6.17
2018-12-12T02:45:29.424Z,4.20
2018-12-12T02:47:58.701Z,4.17
2018-12-12T02:50:28.169Z,4.67
2018-12-12T02:52:57.449Z,4.60
2018-12-12T02:55:26.583Z,4.47
2018-12-12T02:57:55.759Z,5.60
2018-12-12T03:00:24.946Z,4.67
2018-12-12T03:02:54.270Z,4.97
2018-12-12T03:05:23.474Z,5.60
2018-12-12T03:07:52.795Z,4.87
2018-12-12T03:10:21.899Z,4.90
2018-12-12T03:12:51.490Z,5.10
2018-12-12T03:15:20.850Z,4.83
2018-12-12T03:17:50.312Z,4.97
2018-12-12T03:20:19.605Z,5.60
2018-12-12T03:22:48.695Z,4.60
2018-12-12T03:25:18.195Z,5.97
2018-12-12T03:27:47.309Z,5.23
2018-12-12T03:30:16.461Z,6.33
2018-12-12T03:32:45.904Z,5.83
2018-12-12T03:35:15.007Z,4.43
2018-12-12T03:37:44.140Z,4.50
2018-12-12T03:40:13.487Z,5.00
2018-12-12T03:42:43.079Z,4.37
2018-12-12T03:45:12.240Z,5.07
2018-12-12T03:47:41.393Z,4.40
2018-12-12T03:50:10.754Z,6.53
2018-12-12T03:52:40.068Z,4.60
2018-12-12T03:55:09.227Z,6.50
2018-12-12T03:57:39.161Z,7.97
2018-12-12T04:00:08.754Z,4.70
2018-12-12T04:02:38.316Z,5.07
2018-12-12T04:05:07.598Z,5.93
2018-12-12T04:07:36.937Z,6.50
2018-12-12T04:10:06.852Z,4.97
2018-12-12T04:12:36.014Z,5.73
2018-12-12T04:15:05.508Z,5.70
2018-12-12T04:17:34.839Z,5.93
2018-12-12T04:20:04.308Z,6.37
2018-12-12T04:22:33.649Z,6.47
2018-12-12T04:25:03.409Z,6.70
2018-12-12T04:27:32.573Z,8.03
2018-12-12T04:30:02.057Z,7.40
2018-12-12T04:32:31.400Z,7.60
2018-12-12T04:35:00.946Z,9.27
2018-12-12T04:37:30.208Z,10.33
2018-12-12T04:39:59.405Z,9.40
2018-12-12T04:42:28.738Z,10.63
2018-12-12T04:44:58.388Z,10.53
2018-12-12T04:47:27.529Z,9.03
2018-12-12T04:49:56.753Z,9.67
2018-12-12T04:52:25.885Z,9.10
2018-12-12T04:54:55.008Z,8.97
2018-12-12T04:57:24.132Z,9.40
2018-12-12T04:59:53.819Z,9.37
2018-12-12T05:02:28.648Z,12.27
2018-12-12T05:04:58.042Z,13.40
2018-12-12T05:07:27.646Z,13.70
2018-12-12T05:09:56.973Z,14.23
2018-12-12T05:12:26.219Z,14.20
2018-12-12T05:14:55.741Z,15.13
2018-12-12T05:17:25.063Z,16.07
2018-12-12T05:19:54.484Z,16.97
2018-12-12T05:22:23.746Z,14.90
2018-12-12T05:24:52.989Z,16.00
2018-12-12T05:27:22.351Z,13.07
2018-12-12T05:29:51.533Z,12.87
2018-12-12T05:32:20.664Z,14.03
2018-12-12T05:34:50.279Z,14.50
2018-12-12T05:37:19.445Z,18.47
2018-12-12T05:39:48.585Z,14.63
2018-12-12T05:42:17.710Z,14.73
2018-12-12T05:44:46.836Z,16.90
2018-12-12T05:47:16.540Z,14.57
2018-12-12T05:49:46.148Z,15.33
2018-12-12T05:52:15.333Z,18.43
2018-12-12T05:54:44.493Z,18.43
2018-12-12T05:57:13.849Z,19.03
2018-12-12T05:59:43.121Z,18.40
2018-12-12T06:02:12.273Z,20.30
2018-12-12T06:04:41.420Z,18.63
2018-12-12T06:07:10.865Z,20.97
2018-12-12T06:09:40.099Z,18.43
2018-12-12T06:12:09.320Z,20.70
2018-12-12T06:14:38.545Z,23.90
2018-12-12T06:17:07.942Z,21.13
2018-12-12T06:19:37.103Z,22.53
2018-12-12T06:22:07.367Z,18.70
2018-12-12T06:24:37.337Z,17.33
2018-12-12T06:27:07.586Z,18.67
2018-12-12T06:29:36.872Z,18.23
2018-12-12T06:32:06.048Z,17.67
2018-12-12T06:34:35.271Z,18.07
2018-12-12T06:37:04.716Z,23.00
2018-12-12T06:39:33.995Z,17.03
2018-12-12T06:42:03.204Z,14.07
2018-12-12T06:44:32.334Z,14.77
2018-12-12T06:47:01.665Z,14.03
2018-12-12T06:49:31.138Z,12.63
2018-12-12T06:52:00.287Z,13.57
2018-12-12T06:54:29.768Z,11.67
2018-12-12T06:56:59.233Z,11.47
2018-12-12T06:59:28.297Z,11.73
2018-12-12T07:01:57.753Z,12.60
2018-12-12T07:04:27.278Z,12.57
2018-12-12T07:06:57.532Z,12.37
2018-12-12T07:09:26.996Z,13.83
2018-12-12T07:11:56.697Z,12.37
2018-12-12T07:14:26.139Z,12.20
2018-12-12T07:16:55.393Z,11.60
2018-12-12T07:19:24.816Z,12.07
2018-12-12T07:21:54.018Z,14.60
2018-12-12T07:24:23.283Z,12.30
2018-12-12T07:26:52.518Z,12.63
2018-12-12T07:29:21.995Z,12.10
2018-12-12T07:31:51.289Z,11.23
2018-12-12T07:34:20.514Z,11.23
2018-12-12T07:36:50.030Z,15.37
2018-12-12T07:39:19.225Z,13.87
2018-12-12T07:41:48.681Z,14.50
2018-12-12T07:44:17.891Z,13.07
2018-12-12T07:46:47.843Z,12.80
2018-12-12T07:49:17.690Z,13.63
2018-12-12T07:51:46.869Z,13.20
2018-12-12T07:54:16.225Z,12.63
2018-12-12T07:56:51.836Z,11.17
2018-12-12T07:59:21.225Z,13.93
2018-12-12T08:01:50.782Z,14.17
2018-12-12T08:04:19.993Z,13.93
2018-12-12T08:06:49.377Z,15.70
2018-12-12T08:09:18.744Z,13.13
2018-12-12T08:11:48.243Z,13.73
2018-12-12T08:14:17.426Z,15.33
2018-12-12T08:16:46.663Z,13.23
2018-12-12T08:19:15.828Z,11.47
2018-12-12T08:21:45.083Z,12.77
2018-12-12T08:24:14.284Z,13.40
2018-12-12T08:26:43.445Z,15.93
2018-12-12T08:29:13.979Z,16.23
2018-12-12T08:31:43.511Z,13.67
2018-12-12T08:34:12.780Z,17.70
2018-12-12T08:36:42.563Z,15.90
2018-12-12T08:39:11.735Z,17.83
2018-12-12T08:41:41.125Z,15.17
2018-12-12T08:44:11.127Z,16.07
2018-12-12T08:46:40.426Z,13.93
2018-12-12T08:49:10.003Z,12.87
2018-12-12T08:51:39.152Z,12.43
2018-12-12T08:54:08.749Z,17.17
2018-12-12T08:56:38.198Z,12.77
2018-12-12T08:59:07.537Z,15.57
2018-12-12T09:01:36.706Z,15.60
2018-12-12T09:04:06.319Z,14.30
2018-12-12T09:06:35.805Z,15.40
2018-12-12T09:09:07.722Z,10.90
2018-12-12T09:11:37.448Z,12.87
2018-12-12T09:14:06.842Z,14.80
2018-12-12T09:16:36.054Z,13.07
2018-12-12T09:19:05.199Z,13.00
2018-12-12T09:21:35.800Z,14.63
2018-12-12T09:24:05.869Z,11.07
2018-12-12T09:26:37.235Z,12.30
2018-12-12T09:29:06.482Z,10.47
2018-12-12T09:31:35.636Z,7.97
2018-12-12T09:34:04.702Z,10.63
2018-12-12T09:36:34.955Z,13.33
2018-12-12T09:39:07.661Z,10.97
2018-12-12T09:41:37.245Z,11.83
2018-12-12T09:44:07.512Z,12.50
2018-12-12T09:46:36.747Z,10.97
2018-12-12T09:49:06.475Z,10.63
2018-12-12T09:51:35.944Z,10.83
2018-12-12T09:54:05.322Z,11.00
2018-12-12T09:56:34.466Z,12.20
2018-12-12T09:59:03.958Z,14.10
2018-12-12T10:01:36.256Z,10.30
2018-12-12T10:04:19.888Z,11.00
2018-12-12T10:07:05.032Z,9.70
2018-12-12T10:10:13.134Z,9.33
2018-12-12T10:12:44.192Z,12.10
2018-12-12T10:15:14.405Z,11.30
2018-12-12T10:24:03.783Z,12.90
2018-12-12T10:26:33.235Z,10.87
2018-12-12T10:29:03.186Z,11.87
2018-12-12T10:31:32.882Z,9.63
2018-12-12T10:34:02.775Z,7.17
2018-12-12T10:36:32.250Z,12.17
2018-12-12T10:39:01.690Z,13.90
2018-12-12T10:41:31.154Z,13.37
2018-12-12T10:44:01.472Z,7.53
2018-12-12T10:46:31.266Z,9.80
2018-12-12T10:49:00.611Z,8.30
2018-12-12T10:51:30.125Z,7.00
2018-12-12T10:53:59.305Z,7.27
2018-12-12T10:56:28.738Z,6.77
2018-12-12T10:58:57.969Z,6.60
2018-12-12T11:04:15.817Z,6.10
2018-12-12T11:06:45.099Z,5.77
2018-12-12T11:09:14.587Z,8.10
2018-12-12T11:11:44.297Z,9.23
2018-12-12T11:14:13.555Z,8.10
2018-12-12T11:16:43.039Z,6.13
2018-12-12T11:19:12.413Z,9.13
2018-12-12T11:21:41.646Z,9.40
2018-12-12T11:24:10.783Z,5.80
2018-12-12T11:26:40.179Z,5.97
2018-12-12T11:29:09.380Z,6.30
2018-12-12T11:31:38.661Z,6.67
2018-12-12T11:34:07.991Z,6.97
2018-12-12T11:36:38.218Z,8.13
2018-12-12T11:39:07.767Z,7.73
2018-12-12T11:41:38.868Z,8.10
2018-12-12T11:44:08.085Z,10.80
2018-12-12T11:46:37.490Z,9.20
2018-12-12T11:49:06.621Z,12.10
2018-12-12T11:51:35.985Z,11.17
2018-12-12T11:54:05.184Z,9.43
2018-12-12T11:56:34.668Z,9.00
2018-12-12T11:59:04.403Z,9.43
2018-12-12T12:01:33.542Z,8.00
2018-12-12T12:04:02.723Z,8.50
2018-12-12T12:06:31.910Z,9.87
2018-12-12T12:09:01.034Z,12.00
2018-12-12T12:11:30.373Z,11.30
2018-12-12T12:13:59.608Z,12.33
2018-12-12T12:16:28.793Z,10.60
2018-12-12T12:18:58.400Z,12.57
2018-12-12T12:21:27.820Z,12.40
2018-12-12T12:23:56.998Z,12.43
2018-12-12T12:26:26.440Z,10.17
2018-12-12T12:28:56.051Z,11.57
2018-12-12T12:31:25.643Z,11.07
2018-12-12T12:33:55.062Z,11.97
2018-12-12T12:36:24.245Z,13.50
2018-12-12T12:38:54.218Z,10.83
2018-12-12T12:41:24.100Z,10.80
2018-12-12T12:43:53.366Z,9.60
2018-12-12T12:46:22.643Z,9.43
2018-12-12T12:48:51.849Z,13.03
2018-12-12T12:51:21.024Z,10.13
2018-12-12T12:53:50.254Z,10.33
2018-12-12T12:56:19.433Z,10.43
2018-12-12T12:58:48.567Z,12.33
2018-12-12T13:01:17.878Z,10.33
2018-12-12T13:03:47.580Z,10.70
2018-12-12T13:06:16.777Z,12.00
2018-12-12T13:08:46.018Z,10.80
2018-12-12T13:11:15.365Z,11.63
2018-12-12T13:13:44.533Z,10.90
2018-12-12T13:16:13.687Z,11.87
2018-12-12T13:18:43.011Z,12.67
2018-12-12T13:21:12.357Z,10.27
2018-12-12T13:23:43.752Z,12.30
2018-12-12T13:26:13.119Z,15.63
2018-12-12T13:28:43.189Z,11.80
2018-12-12T13:31:12.996Z,12.93
2018-12-12T13:33:42.494Z,14.67
2018-12-12T13:36:12.902Z,16.20
2018-12-12T13:38:43.417Z,25.73
2018-12-12T13:41:12.707Z,12.70
2018-12-12T13:43:41.945Z,11.77
2018-12-12T13:46:11.096Z,11.97
2018-12-12T13:48:40.664Z,14.63
2018-12-12T13:51:10.373Z,13.83
2018-12-12T13:53:39.534Z,15.73
2018-12-12T13:56:09.549Z,19.07
2018-12-12T13:58:38.807Z,14.33
2018-12-12T14:01:09.314Z,13.67
2018-12-12T14:03:38.941Z,15.57
2018-12-12T14:06:08.273Z,13.23
2018-12-12T14:08:39.113Z,14.60
2018-12-12T14:11:08.315Z,17.20
2018-12-12T14:13:37.528Z,16.13
2018-12-12T14:16:07.263Z,15.13
2018-12-12T14:18:36.849Z,17.93
2018-12-12T14:21:06.510Z,18.47
2018-12-12T14:23:35.939Z,17.47
2018-12-12T14:26:05.494Z,14.60
2018-12-12T14:28:34.832Z,20.70
2018-12-12T14:31:04.031Z,18.53
2018-12-12T14:33:33.484Z,17.33
2018-12-12T14:36:03.069Z,17.33
2018-12-12T14:38:32.341Z,17.70
2018-12-12T14:41:01.641Z,18.77
2018-12-12T14:43:31.134Z,17.87
2018-12-12T14:46:00.354Z,17.27
2018-12-12T14:48:30.361Z,17.70
2018-12-12T14:51:30.343Z,19.80
2018-12-12T14:53:59.556Z,19.00
2018-12-12T14:56:28.855Z,18.57
2018-12-12T14:58:58.465Z,21.17
2018-12-12T15:01:27.694Z,17.73
2018-12-12T15:03:56.837Z,25.07
2018-12-12T15:06:26.156Z,18.87
2018-12-12T15:08:55.423Z,16.97
2018-12-12T15:11:25.028Z,19.57
2018-12-12T15:13:54.224Z,20.07
2018-12-12T15:16:23.552Z,17.57
2018-12-12T15:18:52.773Z,18.05
2018-12-12T15:21:25.773Z,19.63
2018-12-12T15:23:53.039Z,22.87
2018-12-12T15:26:22.502Z,20.07
2018-12-12T15:28:51.706Z,20.20
2018-12-12T15:31:21.862Z,22.87
2018-12-12T15:33:51.530Z,19.27
2018-12-12T15:36:20.756Z,23.53
2018-12-12T15:38:50.094Z,23.17
2018-12-12T15:41:19.238Z,23.27
2018-12-12T15:43:48.902Z,22.37
2018-12-12T15:46:18.100Z,20.60
2018-12-12T15:48:47.972Z,23.60
2018-12-12T15:51:17.491Z,25.40
2018-12-12T15:53:46.608Z,26.33
2018-12-12T15:56:16.343Z,23.77
2018-12-12T15:58:45.641Z,26.23
2018-12-12T16:01:14.789Z,24.60
2018-12-12T16:03:43.905Z,24.67
2018-12-12T16:06:13.137Z,19.10
2018-12-12T16:08:42.256Z,21.77
2018-12-12T16:11:11.405Z,22.63
2018-12-12T16:13:40.898Z,21.60
2018-12-12T16:16:10.327Z,21.50
2018-12-12T16:18:39.478Z,22.37
2018-12-12T16:21:08.943Z,21.80
2018-12-12T16:23:38.215Z,21.67
2018-12-12T16:26:07.683Z,24.20
2018-12-12T16:28:37.004Z,23.73
2018-12-12T16:31:06.268Z,21.60
2018-12-12T16:36:16.410Z,22.53
2018-12-12T16:38:45.555Z,23.13
2018-12-12T16:41:14.869Z,20.63
2018-12-12T16:43:44.016Z,23.40
2018-12-12T16:46:13.234Z,24.97
2018-12-12T16:48:42.825Z,21.80
2018-12-12T16:51:12.181Z,26.10
2018-12-12T16:53:41.233Z,26.10
2018-12-12T16:56:10.441Z,22.10
2018-12-12T16:58:39.666Z,20.13
2018-12-12T17:01:08.845Z,19.00
2018-12-12T17:03:38.465Z,24.30
2018-12-12T17:06:07.792Z,21.77
2018-12-12T17:08:36.988Z,23.87
2018-12-12T17:11:06.127Z,24.00
2018-12-12T17:13:35.390Z,22.87
2018-12-12T17:16:05.644Z,27.10
2018-12-12T17:18:35.047Z,27.40
2018-12-12T17:21:04.302Z,27.33
2018-12-12T17:23:33.700Z,29.40
2018-12-12T17:26:03.059Z,29.20
2018-12-12T17:28:32.608Z,24.43
2018-12-12T17:31:02.244Z,31.63
2018-12-12T17:33:31.881Z,31.93
2018-12-12T17:36:01.390Z,23.83
2018-12-12T17:38:40.172Z,26.90
2018-12-12T17:41:14.047Z,29.87
2018-12-12T17:43:50.175Z,24.30
2018-12-12T17:46:22.877Z,27.20
2018-12-12T17:48:59.201Z,26.50
2018-12-12T17:51:41.787Z,26.07
2018-12-12T17:54:16.683Z,25.33
2018-12-12T17:56:48.095Z,22.83
2018-12-12T17:59:22.376Z,26.07
2018-12-12T18:01:55.434Z,24.33
2018-12-12T18:04:26.170Z,24.30
2018-12-12T18:06:56.240Z,27.00
2018-12-12T18:09:26.035Z,27.07
2018-12-12T18:11:55.421Z,29.70
2018-12-12T18:14:24.649Z,25.80
2018-12-12T18:16:54.086Z,22.83
2018-12-12T18:19:23.475Z,28.50
2018-12-12T18:21:52.661Z,25.30
2018-12-12T18:24:21.883Z,25.80
2018-12-12T18:26:51.369Z,27.47
2018-12-12T18:29:20.543Z,22.60
2018-12-12T18:31:50.309Z,22.73
2018-12-12T18:34:19.530Z,24.23
2018-12-12T18:36:49.211Z,25.63
2018-12-12T18:39:18.559Z,22.17
2018-12-12T18:41:47.896Z,21.13
2018-12-12T18:44:17.188Z,43.03
2018-12-12T18:46:46.505Z,21.70
2018-12-12T18:49:15.907Z,26.33
2018-12-12T18:51:45.141Z,21.07
2018-12-12T18:54:14.456Z,21.23
2018-12-12T18:56:44.081Z,24.70
2018-12-12T18:59:13.292Z,22.37
2018-12-12T19:01:42.823Z,25.67
2018-12-12T19:04:11.957Z,24.87
2018-12-12T19:06:41.113Z,23.10
2018-12-12T19:09:10.572Z,28.33
2018-12-12T19:11:44.419Z,22.07
2018-12-12T19:14:11.268Z,26.80
2018-12-12T19:16:40.824Z,30.07
2018-12-12T19:19:10.173Z,27.37
2018-12-12T19:21:40.999Z,28.70
2018-12-12T19:24:10.646Z,38.13
2018-12-12T19:26:41.346Z,35.20
2018-12-12T19:29:10.653Z,28.30
2018-12-12T19:31:39.853Z,31.73
2018-12-12T19:34:09.021Z,26.20
2018-12-12T19:36:38.309Z,27.93
2018-12-12T19:39:09.481Z,33.43
2018-12-12T19:41:39.795Z,29.67
2018-12-12T19:44:09.159Z,27.77
2018-12-12T19:46:38.609Z,31.10
2018-12-12T19:49:09.313Z,33.57
2018-12-12T19:51:40.231Z,27.33
2018-12-12T19:54:09.702Z,25.40
2018-12-12T19:56:40.501Z,28.93
2018-12-12T19:59:09.809Z,26.37
2018-12-12T20:01:39.403Z,27.67
2018-12-12T20:04:09.331Z,24.67
2018-12-12T20:06:39.209Z,25.07
2018-12-12T20:09:09.403Z,24.90
2018-12-12T20:11:39.907Z,32.17
2018-12-12T20:14:09.986Z,26.57
2018-12-12T20:16:39.477Z,25.20
2018-12-12T20:19:09.853Z,26.33
2018-12-12T20:21:40.047Z,31.97
2018-12-12T20:24:11.034Z,25.67
2018-12-12T20:26:40.679Z,35.70
2018-12-12T20:29:10.258Z,31.60
2018-12-12T20:31:41.354Z,27.67
2018-12-12T20:34:12.388Z,32.00
2018-12-12T20:36:43.113Z,33.70
2018-12-12T20:39:12.504Z,29.30
2018-12-12T20:41:42.815Z,28.47
2018-12-12T20:44:12.655Z,31.87
2018-12-12T20:46:42.611Z,28.97
2018-12-12T20:49:12.999Z,26.67
2018-12-12T20:51:42.721Z,28.97
2018-12-12T20:54:12.253Z,28.80
2018-12-12T20:56:41.705Z,31.20
2018-12-12T20:59:11.517Z,28.73
2018-12-12T21:01:42.155Z,27.73
2018-12-12T21:04:12.061Z,32.30
2018-12-12T21:06:41.694Z,29.90
2018-12-12T21:09:13.264Z,34.70
2018-12-12T21:11:43.573Z,29.60
2018-12-12T21:14:13.203Z,26.73
2018-12-12T21:16:42.663Z,30.17
2018-12-12T21:19:12.066Z,26.57
2018-12-12T21:21:42.171Z,27.37
2018-12-12T21:24:11.539Z,31.67
2018-12-12T21:26:41.064Z,28.80
2018-12-12T21:29:11.021Z,28.53
2018-12-12T21:31:40.504Z,26.07
2018-12-12T21:34:10.469Z,32.93
2018-12-12T21:36:41.127Z,25.47
2018-12-12T21:39:10.811Z,27.93
2018-12-12T21:41:41.052Z,28.13
2018-12-12T21:44:10.859Z,36.27
2018-12-12T21:46:41.932Z,29.37
2018-12-12T21:49:13.395Z,29.43
2018-12-12T21:51:43.008Z,27.10
2018-12-12T21:54:13.730Z,25.07
2018-12-12T21:56:43.350Z,31.70
2018-12-12T21:59:13.254Z,26.87
2018-12-12T22:01:43.712Z,25.20
2018-12-12T22:04:13.082Z,27.87
2018-12-12T22:06:42.379Z,37.27
2018-12-12T22:09:11.761Z,35.83
2018-12-12T22:11:41.018Z,26.63
2018-12-12T22:14:10.402Z,39.57
2018-12-12T22:16:39.851Z,35.20
2018-12-12T22:19:09.625Z,32.20
2018-12-12T22:21:38.957Z,21.20
2018-12-12T22:24:08.910Z,20.63
2018-12-12T22:26:38.935Z,20.87
2018-12-12T22:29:08.132Z,20.60
2018-12-12T22:31:37.289Z,19.87
2018-12-12T22:34:06.909Z,26.70
2018-12-12T22:36:36.175Z,29.07
2018-12-12T22:39:07.809Z,28.97
2018-12-12T22:41:36.929Z,23.80
2018-12-12T22:44:06.442Z,23.10
2018-12-12T22:46:35.785Z,25.83
2018-12-12T22:49:05.310Z,26.67
2018-12-12T22:51:34.388Z,26.93
2018-12-12T22:54:03.502Z,21.67
2018-12-12T22:56:32.639Z,27.07
2018-12-12T22:59:01.789Z,30.00
2018-12-12T23:01:31.001Z,24.40
2018-12-12T23:04:00.170Z,27.67
2018-12-12T23:06:29.664Z,24.50
2018-12-12T23:08:58.780Z,23.07
2018-12-12T23:11:28.300Z,21.63
2018-12-12T23:13:57.395Z,22.13
2018-12-12T23:16:26.489Z,25.70
2018-12-12T23:18:55.991Z,23.03
2018-12-12T23:21:25.262Z,24.00
2018-12-12T23:23:54.503Z,19.53
2018-12-12T23:26:23.955Z,20.70
2018-12-12T23:28:53.265Z,17.27
2018-12-12T23:31:22.940Z,21.90
2018-12-12T23:33:52.071Z,21.17
2018-12-12T23:36:26.769Z,20.13
2018-12-12T23:38:52.955Z,21.27
2018-12-12T23:41:22.164Z,22.40
2018-12-12T23:43:51.344Z,22.13
2018-12-12T23:46:20.614Z,26.63
2018-12-12T23:48:50.330Z,26.07
2018-12-12T23:51:19.529Z,33.83
2018-12-12T23:53:48.737Z,32.40
2018-12-12T23:56:17.875Z,34.77
2018-12-12T23:58:47.005Z,31.07
